createdAt,value
2019-03-04T00:01:12.840Z,2.50
2019-03-04T00:03:44.218Z,2.57
2019-03-04T00:06:15.550Z,2.77
2019-03-04T00:08:46.871Z,2.70
2019-03-04T00:11:20.968Z,3.07
2019-03-04T00:13:52.303Z,1.90
2019-03-04T00:16:42.575Z,2.27
2019-03-04T00:19:13.841Z,3.20
2019-03-04T00:21:45.221Z,2.47
2019-03-04T00:24:16.539Z,2.37
2019-03-04T00:26:47.821Z,2.30
2019-03-04T00:29:19.063Z,3.77
2019-03-04T00:31:50.422Z,4.27
2019-03-04T00:34:26.143Z,5.57
2019-03-04T00:36:57.569Z,4.87
2019-03-04T00:39:28.868Z,5.13
2019-03-04T00:42:00.144Z,4.77
2019-03-04T00:44:31.726Z,5.20
2019-03-04T00:47:02.964Z,5.50
2019-03-04T00:49:36.009Z,5.00
2019-03-04T00:52:07.273Z,6.30
2019-03-04T00:54:38.505Z,5.77
2019-03-04T00:57:09.801Z,4.97
2019-03-04T00:59:41.012Z,5.90
2019-03-04T01:02:12.301Z,5.70
2019-03-04T01:04:43.594Z,5.73
2019-03-04T01:07:14.845Z,6.83
2019-03-04T01:09:46.056Z,7.50
2019-03-04T01:12:17.449Z,8.73
2019-03-04T01:14:48.739Z,10.17
2019-03-04T01:17:20.045Z,10.43
2019-03-04T01:19:51.326Z,5.80
2019-03-04T01:23:00.540Z,5.40
2019-03-04T01:25:31.882Z,3.23
2019-03-04T01:28:03.073Z,2.83
2019-03-04T01:30:34.337Z,2.27
2019-03-04T01:33:05.649Z,2.03
2019-03-04T01:35:36.918Z,3.00
2019-03-04T01:38:08.225Z,2.20
2019-03-04T01:40:39.573Z,2.30
2019-03-04T01:43:10.825Z,2.50
2019-03-04T01:45:42.244Z,2.03
2019-03-04T01:48:13.580Z,2.90
2019-03-04T01:50:44.858Z,2.23
2019-03-04T01:53:16.068Z,2.80
2019-03-04T01:55:47.340Z,2.20
2019-03-04T01:58:18.620Z,1.70
2019-03-04T02:00:49.898Z,1.77
2019-03-04T02:03:21.166Z,0.90
2019-03-04T02:05:52.483Z,1.67
2019-03-04T02:08:23.725Z,1.07
2019-03-04T02:10:55.029Z,1.50
2019-03-04T02:13:26.169Z,1.23
2019-03-04T02:15:57.366Z,1.10
2019-03-04T02:18:28.669Z,1.20
2019-03-04T02:20:59.930Z,1.30
2019-03-04T02:23:31.229Z,1.30
2019-03-04T02:26:29.152Z,1.40
2019-03-04T02:29:19.463Z,1.00
2019-03-04T02:32:09.713Z,1.10
2019-03-04T02:34:41.026Z,1.10
2019-03-04T02:37:12.223Z,1.20
2019-03-04T02:39:43.518Z,1.20
2019-03-04T02:42:14.695Z,1.03
2019-03-04T02:44:46.007Z,1.10
2019-03-04T02:47:17.228Z,1.00
2019-03-04T02:49:48.553Z,1.30
2019-03-04T02:52:19.705Z,1.17
2019-03-04T02:54:50.997Z,1.13
2019-03-04T02:57:22.292Z,1.40
2019-03-04T02:59:53.497Z,2.07
2019-03-04T03:02:24.765Z,1.30
2019-03-04T03:04:55.998Z,1.83
2019-03-04T03:07:27.309Z,1.90
2019-03-04T03:09:58.614Z,3.63
2019-03-04T03:12:29.937Z,3.10
2019-03-04T03:15:01.170Z,3.27
2019-03-04T03:17:32.454Z,4.97
2019-03-04T03:20:03.657Z,4.47
2019-03-04T03:22:35.000Z,5.07
2019-03-04T03:25:06.473Z,1.80
2019-03-04T03:27:37.785Z,1.20
2019-03-04T03:30:11.137Z,0.93
2019-03-04T03:32:42.643Z,1.03
2019-03-04T03:35:13.940Z,1.23
2019-03-04T03:38:04.138Z,0.70
2019-03-04T03:40:35.384Z,1.40
2019-03-04T03:43:06.625Z,1.30
2019-03-04T03:45:37.892Z,1.20
2019-03-04T03:48:09.206Z,1.50
2019-03-04T03:50:40.505Z,1.87
2019-03-04T03:53:11.731Z,2.80
2019-03-04T03:55:42.928Z,5.13
2019-03-04T03:58:14.247Z,3.47
2019-03-04T04:00:45.488Z,2.30
2019-03-04T04:03:16.743Z,1.87
2019-03-04T04:05:49.729Z,1.80
2019-03-04T04:08:21.029Z,2.07
2019-03-04T04:10:52.429Z,1.83
2019-03-04T04:13:23.762Z,1.70
2019-03-04T04:15:54.948Z,1.60
2019-03-04T04:18:26.265Z,1.90
2019-03-04T04:20:57.555Z,1.87
2019-03-04T04:23:29.618Z,2.10
2019-03-04T04:26:00.985Z,1.87
2019-03-04T04:28:32.333Z,2.00
2019-03-04T04:31:03.683Z,1.70
2019-03-04T04:33:36.473Z,2.10
2019-03-04T04:36:07.996Z,1.70
2019-03-04T04:38:39.269Z,1.73
2019-03-04T04:41:10.589Z,1.40
2019-03-04T04:44:00.922Z,1.70
2019-03-04T04:47:02.527Z,1.40
2019-03-04T04:49:38.121Z,1.93
2019-03-04T04:52:09.328Z,1.40
2019-03-04T04:54:40.708Z,1.50
2019-03-04T04:57:12.129Z,1.30
2019-03-04T04:59:43.569Z,1.20
2019-03-04T05:02:14.812Z,1.47
2019-03-04T05:04:46.220Z,1.50
2019-03-04T05:07:17.778Z,1.47
2019-03-04T05:09:49.055Z,1.80
2019-03-04T05:12:20.312Z,1.60
2019-03-04T05:14:51.662Z,1.23
2019-03-04T05:17:22.862Z,1.80
2019-03-04T05:19:54.129Z,1.10
2019-03-04T05:22:25.237Z,1.40
2019-03-04T05:24:56.477Z,1.17
2019-03-04T05:27:27.636Z,1.30
2019-03-04T05:29:58.929Z,1.20
2019-03-04T05:32:30.193Z,0.87
2019-03-04T05:35:01.522Z,1.03
2019-03-04T05:37:32.780Z,0.70
2019-03-04T05:40:08.982Z,0.80
2019-03-04T05:42:40.394Z,0.70
2019-03-04T05:45:14.144Z,0.90
2019-03-04T05:47:45.374Z,0.70
2019-03-04T05:50:17.643Z,1.00
2019-03-04T05:53:07.901Z,0.77
2019-03-04T05:55:39.122Z,0.90
2019-03-04T05:58:10.443Z,0.97
2019-03-04T06:00:43.137Z,0.90
2019-03-04T06:03:14.925Z,1.20
2019-03-04T06:05:46.192Z,2.10
2019-03-04T06:08:17.548Z,1.30
2019-03-04T06:10:48.779Z,1.50
2019-03-04T06:13:20.222Z,1.10
2019-03-04T06:15:51.422Z,0.90
2019-03-04T06:18:22.673Z,0.83
2019-03-04T06:20:53.986Z,0.90
2019-03-04T06:23:25.126Z,0.77
2019-03-04T06:25:57.185Z,0.83
2019-03-04T06:28:28.450Z,0.80
2019-03-04T06:30:59.739Z,0.70
2019-03-04T06:33:30.898Z,0.60
2019-03-04T06:36:02.117Z,0.90
2019-03-04T06:38:33.384Z,0.90
2019-03-04T06:41:04.628Z,0.80
2019-03-04T06:43:35.936Z,0.80
2019-03-04T06:46:07.174Z,0.50
2019-03-04T06:48:38.570Z,0.70
2019-03-04T06:51:11.450Z,0.73
2019-03-04T06:54:10.381Z,0.87
2019-03-04T06:56:51.423Z,0.50
2019-03-04T07:00:25.701Z,0.80
2019-03-04T07:02:57.126Z,1.00
2019-03-04T07:05:49.139Z,1.00
2019-03-04T07:09:02.578Z,1.00
2019-03-04T07:11:34.148Z,0.87
2019-03-04T07:14:06.140Z,1.60
2019-03-04T07:16:37.382Z,1.07
2019-03-04T07:19:11.500Z,0.80
2019-03-04T07:21:42.723Z,1.13
2019-03-04T07:24:13.887Z,0.83
2019-03-04T07:26:45.168Z,1.10
2019-03-04T07:29:16.330Z,1.00
2019-03-04T07:31:47.565Z,1.00
2019-03-04T07:34:18.722Z,1.20
2019-03-04T07:36:56.602Z,1.13
2019-03-04T07:39:27.812Z,0.80
2019-03-04T07:42:00.684Z,1.00
2019-03-04T07:44:32.032Z,1.03
2019-03-04T07:47:05.999Z,0.80
2019-03-04T07:49:37.254Z,1.27
2019-03-04T07:52:08.474Z,1.30
2019-03-04T07:54:39.714Z,1.10
2019-03-04T07:57:11.002Z,1.13
2019-03-04T07:59:42.239Z,1.00
2019-03-04T08:02:13.398Z,1.00
2019-03-04T08:04:44.799Z,0.90
2019-03-04T08:07:38.979Z,1.13
2019-03-04T08:11:11.250Z,1.23
2019-03-04T08:13:47.901Z,1.10
2019-03-04T08:16:19.198Z,0.80
2019-03-04T08:18:50.501Z,1.00
2019-03-04T08:21:21.826Z,1.20
2019-03-04T08:23:52.994Z,0.73
2019-03-04T08:26:24.942Z,1.10
2019-03-04T08:28:56.234Z,1.03
2019-03-04T08:31:27.457Z,0.90
2019-03-04T08:33:58.669Z,0.90
2019-03-04T08:36:29.914Z,1.00
2019-03-04T08:39:01.178Z,1.10
2019-03-04T08:41:32.453Z,1.50
2019-03-04T08:44:03.743Z,1.53
2019-03-04T08:46:34.993Z,1.57
2019-03-04T08:49:06.372Z,0.77
2019-03-04T08:51:37.588Z,1.27
2019-03-04T08:54:08.888Z,1.10
2019-03-04T08:56:40.121Z,0.77
2019-03-04T08:59:11.373Z,2.10
2019-03-04T09:01:42.704Z,2.00
2019-03-04T09:04:13.980Z,1.23
2019-03-04T09:06:45.233Z,1.10
2019-03-04T09:09:16.424Z,1.83
2019-03-04T09:12:06.675Z,1.40
2019-03-04T09:14:56.924Z,1.20
2019-03-04T09:17:28.310Z,1.60
2019-03-04T09:19:59.644Z,2.20
2019-03-04T09:22:31.025Z,1.00
2019-03-04T09:25:02.239Z,1.70
2019-03-04T09:27:33.526Z,1.77
2019-03-04T09:30:06.679Z,1.47
2019-03-04T09:32:38.001Z,1.77
2019-03-04T09:35:10.514Z,1.20
2019-03-04T09:37:41.974Z,1.77
2019-03-04T09:40:15.846Z,1.30
2019-03-04T09:42:47.686Z,1.17
2019-03-04T09:45:19.239Z,1.40
2019-03-04T09:47:50.906Z,1.20
2019-03-04T09:50:30.724Z,2.30
2019-03-04T09:53:19.564Z,1.30
2019-03-04T09:55:50.888Z,1.07
2019-03-04T09:58:22.056Z,1.33
2019-03-04T10:01:39.016Z,1.87
2019-03-04T10:04:55.668Z,1.73
2019-03-04T10:08:32.929Z,3.00
2019-03-04T10:11:54.288Z,1.20
2019-03-04T10:15:14.547Z,1.23
2019-03-04T10:19:03.952Z,1.30
2019-03-04T10:22:32.973Z,1.60
2019-03-04T10:25:58.219Z,1.87
2019-03-04T10:29:03.019Z,1.80
2019-03-04T10:31:53.458Z,1.20
2019-03-04T10:35:16.522Z,1.10
2019-03-04T10:38:33.918Z,1.33
2019-03-04T10:42:05.836Z,1.03
2019-03-04T10:45:33.147Z,1.93
2019-03-04T10:48:04.504Z,2.10
2019-03-04T10:50:36.137Z,2.30
2019-03-04T10:53:07.430Z,1.23
2019-03-04T10:55:41.899Z,1.40
2019-03-04T10:58:11.587Z,1.50
2019-03-04T11:00:43.189Z,1.90
2019-03-04T11:03:14.460Z,1.30
2019-03-04T11:05:45.850Z,1.80
2019-03-04T11:08:17.117Z,0.90
2019-03-04T11:10:48.386Z,1.20
2019-03-04T11:13:20.195Z,0.97
2019-03-04T11:15:51.447Z,1.43
2019-03-04T11:18:22.667Z,1.10
2019-03-04T11:20:53.869Z,1.00
2019-03-04T11:23:29.430Z,1.10
2019-03-04T11:26:01.060Z,1.30
2019-03-04T11:28:36.593Z,1.70
2019-03-04T11:31:08.033Z,2.47
2019-03-04T11:33:40.749Z,1.50
2019-03-04T11:36:12.011Z,1.27
2019-03-04T11:38:46.839Z,1.13
2019-03-04T11:41:22.026Z,1.37
2019-03-04T11:43:53.706Z,1.57
2019-03-04T11:46:25.626Z,0.87
2019-03-04T11:48:56.945Z,0.97
2019-03-04T11:51:28.277Z,1.00
2019-03-04T11:53:59.769Z,0.90
2019-03-04T11:56:31.198Z,1.10
2019-03-04T11:59:02.577Z,0.77
2019-03-04T12:01:39.344Z,0.53
2019-03-04T12:04:10.604Z,0.60
2019-03-04T12:06:43.200Z,0.70
2019-03-04T12:09:16.586Z,0.73
2019-03-04T12:11:53.752Z,1.00
2019-03-04T12:14:25.019Z,0.90
2019-03-04T12:16:56.342Z,1.00
2019-03-04T12:19:28.851Z,1.03
2019-03-04T12:22:01.758Z,0.80
2019-03-04T12:24:33.137Z,0.80
2019-03-04T12:27:06.766Z,1.53
2019-03-04T12:29:37.737Z,1.40
2019-03-04T12:32:12.242Z,2.10
2019-03-04T12:35:25.460Z,1.80
2019-03-04T12:37:59.781Z,1.53
2019-03-04T12:40:34.308Z,2.90
2019-03-04T12:43:05.869Z,1.53
2019-03-04T12:45:37.370Z,1.90
2019-03-04T12:48:21.153Z,1.77
2019-03-04T12:50:52.515Z,1.23
2019-03-04T12:53:24.134Z,1.13
2019-03-04T12:55:55.517Z,1.10
2019-03-04T12:58:26.970Z,1.40
2019-03-04T13:00:58.390Z,1.80
2019-03-04T13:03:34.902Z,1.37
2019-03-04T13:06:06.210Z,1.73
2019-03-04T13:08:37.472Z,1.93
2019-03-04T13:11:08.840Z,1.67
2019-03-04T13:13:40.153Z,1.70
2019-03-04T13:16:11.459Z,1.93
2019-03-04T13:18:42.798Z,1.43
2019-03-04T13:21:14.063Z,1.80
2019-03-04T13:23:45.831Z,1.90
2019-03-04T13:26:23.417Z,2.07
2019-03-04T13:28:57.819Z,2.70
2019-03-04T13:31:29.287Z,2.80
2019-03-04T13:34:00.912Z,3.10
2019-03-04T13:36:32.518Z,3.17
2019-03-04T13:39:05.089Z,2.83
2019-03-04T13:41:38.181Z,2.80
2019-03-04T13:44:09.620Z,3.30
2019-03-04T13:46:40.850Z,3.07
2019-03-04T13:49:13.947Z,3.00
2019-03-04T13:51:45.366Z,3.27
2019-03-04T13:54:16.494Z,3.43
2019-03-04T13:56:47.929Z,3.27
2019-03-04T13:59:19.154Z,3.50
2019-03-04T14:01:50.847Z,3.97
2019-03-04T14:04:24.176Z,2.73
2019-03-04T14:06:58.628Z,3.70
2019-03-04T14:09:29.878Z,3.83
2019-03-04T14:12:01.131Z,3.87
2019-03-04T14:14:32.528Z,3.60
2019-03-04T14:17:06.822Z,3.53
2019-03-04T14:19:41.177Z,3.53
2019-03-04T14:22:12.576Z,4.00
2019-03-04T14:24:44.039Z,2.50
2019-03-04T14:27:15.365Z,2.60
2019-03-04T14:29:46.685Z,1.97
2019-03-04T14:32:27.062Z,1.60
2019-03-04T14:34:59.598Z,1.43
2019-03-04T14:37:31.085Z,1.40
2019-03-04T14:40:02.370Z,1.43
2019-03-04T14:42:33.708Z,1.23
2019-03-04T14:45:06.293Z,1.30
2019-03-04T14:47:40.383Z,1.43
2019-03-04T14:50:14.585Z,3.87
2019-03-04T14:52:45.968Z,0.90
2019-03-04T14:55:53.418Z,1.33
2019-03-04T14:58:24.676Z,1.57
2019-03-04T15:00:55.993Z,1.20
2019-03-04T15:03:27.314Z,1.20
2019-03-04T15:06:06.528Z,1.77
2019-03-04T15:08:31.471Z,1.40
2019-03-04T15:11:02.712Z,0.97
2019-03-04T15:13:34.025Z,1.03
2019-03-04T15:16:05.416Z,1.20
2019-03-04T15:18:36.701Z,1.20
2019-03-04T15:21:09.453Z,1.70
2019-03-04T15:23:40.703Z,1.07
2019-03-04T15:26:12.056Z,1.90
2019-03-04T15:28:43.286Z,1.37
2019-03-04T15:31:14.646Z,1.10
2019-03-04T15:33:45.921Z,1.60
2019-03-04T15:36:17.241Z,1.03
2019-03-04T15:38:48.465Z,1.77
2019-03-04T15:41:19.821Z,1.33
2019-03-04T15:43:51.097Z,1.27
2019-03-04T15:46:22.392Z,1.57
2019-03-04T15:48:53.663Z,1.83
2019-03-04T15:51:24.984Z,1.10
2019-03-04T15:53:56.276Z,1.20
2019-03-04T15:56:27.616Z,0.83
2019-03-04T15:58:58.989Z,1.27
2019-03-04T16:01:30.220Z,1.33
2019-03-04T16:04:01.333Z,1.20
2019-03-04T16:06:32.629Z,1.47
2019-03-04T16:09:05.499Z,1.70
2019-03-04T16:11:37.057Z,1.80
2019-03-04T16:14:08.337Z,1.30
2019-03-04T16:16:39.671Z,0.97
2019-03-04T16:19:10.979Z,1.13
2019-03-04T16:21:42.262Z,1.00
2019-03-04T16:24:13.530Z,1.17
2019-03-04T16:26:48.053Z,0.90
2019-03-04T16:29:19.268Z,1.63
2019-03-04T16:31:50.525Z,0.80
2019-03-04T16:34:21.864Z,1.73
2019-03-04T16:36:53.261Z,1.67
2019-03-04T16:39:24.756Z,1.30
2019-03-04T16:41:56.025Z,1.57
2019-03-04T16:44:27.640Z,1.33
2019-03-04T16:46:58.842Z,2.03
2019-03-04T16:49:30.167Z,1.30
2019-03-04T16:52:01.951Z,2.10
2019-03-04T16:54:33.381Z,1.20
2019-03-04T16:57:12.966Z,1.90
2019-03-04T16:59:44.269Z,1.40
2019-03-04T17:02:34.512Z,1.40
2019-03-04T17:05:06.481Z,1.93
2019-03-04T17:07:37.830Z,1.30
2019-03-04T17:10:11.145Z,1.53
2019-03-04T17:12:42.536Z,1.50
2019-03-04T17:15:17.212Z,1.17
2019-03-04T17:17:51.901Z,1.77
2019-03-04T17:20:23.631Z,1.40
2019-03-04T17:22:54.936Z,1.40
2019-03-04T17:25:26.411Z,2.83
2019-03-04T17:27:57.837Z,1.60
2019-03-04T17:30:29.350Z,1.90
2019-03-04T17:33:00.702Z,1.93
2019-03-04T17:35:34.266Z,1.90
2019-03-04T17:38:05.436Z,1.87
2019-03-04T17:40:36.797Z,1.60
2019-03-04T17:43:08.238Z,1.57
2019-03-04T17:45:39.558Z,2.03
2019-03-04T17:48:11.136Z,1.90
2019-03-04T17:50:42.312Z,2.33
2019-03-04T17:53:13.708Z,1.73
2019-03-04T17:55:45.866Z,1.80
2019-03-04T17:58:20.235Z,1.80
2019-03-04T18:00:55.427Z,2.13
2019-03-04T18:03:26.646Z,2.57
2019-03-04T18:06:00.734Z,2.40
2019-03-04T18:08:50.962Z,2.43
2019-03-04T18:11:22.222Z,2.47
2019-03-04T18:13:53.363Z,3.10
2019-03-04T18:16:24.802Z,2.10
2019-03-04T18:18:56.071Z,1.97
2019-03-04T18:21:30.284Z,1.63
2019-03-04T18:24:01.533Z,2.07
2019-03-04T18:26:48.217Z,1.57
2019-03-04T18:30:11.830Z,1.83
2019-03-04T18:33:49.671Z,1.87
2019-03-04T18:37:26.187Z,1.20
2019-03-04T18:40:41.014Z,1.20
2019-03-04T18:43:56.387Z,1.77
2019-03-04T18:47:26.296Z,1.30
2019-03-04T18:49:57.605Z,2.07
2019-03-04T18:52:28.810Z,1.90
2019-03-04T18:55:00.285Z,2.10
2019-03-04T18:57:31.763Z,1.70
2019-03-04T19:00:03.024Z,1.93
2019-03-04T19:02:34.359Z,3.30
2019-03-04T19:05:09.239Z,2.03
2019-03-04T19:07:40.630Z,1.87
2019-03-04T19:10:12.411Z,1.90
2019-03-04T19:12:43.632Z,1.73
2019-03-04T19:15:15.314Z,1.60
2019-03-04T19:17:46.462Z,1.67
2019-03-04T19:20:17.955Z,1.73
2019-03-04T19:23:01.607Z,1.43
2019-03-04T19:25:32.933Z,1.73
2019-03-04T19:28:06.810Z,1.70
2019-03-04T19:30:38.182Z,1.30
2019-03-04T19:33:09.458Z,2.13
2019-03-04T19:35:40.845Z,2.57
2019-03-04T19:38:12.144Z,2.67
2019-03-04T19:40:43.326Z,2.23
2019-03-04T19:43:14.596Z,3.00
2019-03-04T19:45:46.202Z,2.37
2019-03-04T19:48:17.367Z,2.20
2019-03-04T19:50:48.513Z,2.07
2019-03-04T19:53:19.778Z,1.97
2019-03-04T19:55:51.049Z,1.97
2019-03-04T19:58:22.442Z,2.10
2019-03-04T20:00:53.675Z,2.70
2019-03-04T20:03:24.939Z,1.93
2019-03-04T20:05:56.116Z,2.10
2019-03-04T20:08:27.433Z,2.07
2019-03-04T20:10:58.740Z,1.63
2019-03-04T20:13:30.070Z,1.43
2019-03-04T20:16:01.335Z,1.83
2019-03-04T20:18:32.721Z,2.03
2019-03-04T20:21:04.158Z,2.07
2019-03-04T20:23:35.449Z,2.93
2019-03-04T20:26:06.963Z,1.80
2019-03-04T20:28:38.241Z,2.50
2019-03-04T20:31:10.703Z,1.87
2019-03-04T20:33:42.028Z,2.77
2019-03-04T20:36:13.285Z,1.93
2019-03-04T20:38:47.989Z,2.13
2019-03-04T20:41:19.334Z,2.07
2019-03-04T20:43:50.654Z,2.47
2019-03-04T20:46:21.824Z,2.77
2019-03-04T20:48:53.176Z,2.20
2019-03-04T20:51:24.718Z,2.47
2019-03-04T20:53:55.977Z,2.40
2019-03-04T20:56:27.211Z,2.43
2019-03-04T20:58:58.465Z,2.20
2019-03-04T21:01:30.057Z,1.70
2019-03-04T21:04:01.529Z,1.83
2019-03-04T21:06:33.158Z,1.93
2019-03-04T21:09:05.857Z,2.90
2019-03-04T21:11:37.118Z,3.23
2019-03-04T21:14:08.343Z,2.20
2019-03-04T21:16:39.632Z,2.43
2019-03-04T21:19:11.032Z,2.33
2019-03-04T21:21:42.437Z,2.50
2019-03-04T21:24:13.947Z,2.80
2019-03-04T21:27:06.088Z,2.67
2019-03-04T21:30:43.109Z,1.90
2019-03-04T21:33:37.837Z,1.43
2019-03-04T21:36:32.831Z,1.17
2019-03-04T21:39:05.371Z,1.60
2019-03-04T21:41:53.082Z,1.67
2019-03-04T21:45:12.402Z,1.53
2019-03-04T21:47:52.345Z,1.17
2019-03-04T21:50:39.561Z,1.40
2019-03-04T21:53:20.005Z,1.93
2019-03-04T21:56:54.453Z,2.30
2019-03-04T21:59:25.708Z,4.13
2019-03-04T22:02:13.784Z,2.60
2019-03-04T22:04:45.207Z,2.30
2019-03-04T22:07:18.107Z,2.80
2019-03-04T22:09:49.406Z,1.63
2019-03-04T22:12:20.610Z,1.93
2019-03-04T22:15:00.119Z,2.13
2019-03-04T22:17:31.501Z,2.33
2019-03-04T22:20:02.619Z,2.30
2019-03-04T22:22:37.234Z,2.17
2019-03-04T22:25:09.763Z,2.60
2019-03-04T22:27:41.105Z,2.30
2019-03-04T22:30:15.616Z,2.83
2019-03-04T22:32:50.209Z,2.60
2019-03-04T22:35:21.724Z,3.30
2019-03-04T22:37:54.409Z,3.07
2019-03-04T22:40:25.901Z,2.97
2019-03-04T22:42:57.134Z,2.47
2019-03-04T22:45:28.466Z,3.40
2019-03-04T22:47:59.543Z,2.83
2019-03-04T22:50:30.804Z,2.90
2019-03-04T22:53:02.090Z,2.37
2019-03-04T22:55:36.628Z,2.60
2019-03-04T22:58:07.838Z,2.67
2019-03-04T23:01:38.096Z,3.70
2019-03-04T23:04:41.015Z,2.80
2019-03-04T23:07:34.169Z,1.90
2019-03-04T23:10:40.868Z,2.70
2019-03-04T23:13:58.329Z,2.30
2019-03-04T23:16:32.715Z,3.30
2019-03-04T23:19:03.881Z,4.20
2019-03-04T23:21:35.056Z,2.57
2019-03-04T23:24:06.236Z,2.87
2019-03-04T23:26:37.459Z,3.47
2019-03-04T23:29:08.660Z,2.57
2019-03-04T23:31:39.925Z,3.40
2019-03-04T23:34:11.189Z,3.27
2019-03-04T23:36:42.408Z,4.03
2019-03-04T23:39:14.165Z,3.50
2019-03-04T23:42:04.327Z,3.80
2019-03-04T23:44:35.570Z,3.40
2019-03-04T23:47:06.742Z,2.70
2019-03-04T23:49:38.027Z,3.53
2019-03-04T23:52:09.256Z,3.87
2019-03-04T23:54:40.462Z,2.93
2019-03-04T23:57:11.614Z,3.77
2019-03-04T23:59:42.855Z,2.60
